sensor_id;sensor_type;location;lat;lon;timestamp;P1;durP1;ratioP1;P2;durP2;ratioP2
14125;SDS011;7141;49.484;11.242;2023-02-21T00:01:29;9.77;;;3.73;;
14125;SDS011;7141;49.484;11.242;2023-02-21T00:04:13;6.80;;;3.53;;
14125;SDS011;7141;49.484;11.242;2023-02-21T00:06:58;6.20;;;3.67;;
14125;SDS011;7141;49.484;11.242;2023-02-21T00:09:42;8.13;;;3.30;;
14125;SDS011;7141;49.484;11.242;2023-02-21T00:12:27;6.97;;;3.70;;
14125;SDS011;7141;49.484;11.242;2023-02-21T00:15:11;8.93;;;3.70;;
14125;SDS011;7141;49.484;11.242;2023-02-21T00:17:56;9.00;;;3.90;;
14125;SDS011;7141;49.484;11.242;2023-02-21T00:20:41;8.60;;;3.60;;
14125;SDS011;7141;49.484;11.242;2023-02-21T00:23:25;7.53;;;3.90;;
14125;SDS011;7141;49.484;11.242;2023-02-21T00:26:10;7.93;;;3.47;;
14125;SDS011;7141;49.484;11.242;2023-02-21T00:28:55;6.37;;;3.80;;
14125;SDS011;7141;49.484;11.242;2023-02-21T00:31:40;7.03;;;3.27;;
14125;SDS011;7141;49.484;11.242;2023-02-21T00:34:25;5.70;;;3.80;;
14125;SDS011;7141;49.484;11.242;2023-02-21T00:37:09;8.50;;;3.90;;
14125;SDS011;7141;49.484;11.242;2023-02-21T00:39:54;9.43;;;3.87;;
14125;SDS011;7141;49.484;11.242;2023-02-21T00:42:38;6.90;;;3.37;;
14125;SDS011;7141;49.484;11.242;2023-02-21T00:45:23;9.73;;;4.33;;
14125;SDS011;7141;49.484;11.242;2023-02-21T00:48:08;8.13;;;3.50;;
14125;SDS011;7141;49.484;11.242;2023-02-21T00:50:52;7.47;;;3.50;;
14125;SDS011;7141;49.484;11.242;2023-02-21T00:53:37;8.57;;;3.57;;
14125;SDS011;7141;49.484;11.242;2023-02-21T00:56:22;7.80;;;3.93;;
14125;SDS011;7141;49.484;11.242;2023-02-21T00:59:06;4.13;;;3.40;;
14125;SDS011;7141;49.484;11.242;2023-02-21T01:01:51;5.50;;;3.60;;
14125;SDS011;7141;49.484;11.242;2023-02-21T01:04:35;5.43;;;3.33;;
14125;SDS011;7141;49.484;11.242;2023-02-21T01:07:20;16.80;;;8.13;;
14125;SDS011;7141;49.484;11.242;2023-02-21T01:10:05;8.67;;;4.37;;
14125;SDS011;7141;49.484;11.242;2023-02-21T01:12:49;7.80;;;3.90;;
14125;SDS011;7141;49.484;11.242;2023-02-21T01:15:34;10.30;;;4.17;;
14125;SDS011;7141;49.484;11.242;2023-02-21T01:18:18;10.50;;;4.33;;
14125;SDS011;7141;49.484;11.242;2023-02-21T01:21:03;8.13;;;4.00;;
14125;SDS011;7141;49.484;11.242;2023-02-21T01:23:48;7.20;;;4.13;;
14125;SDS011;7141;49.484;11.242;2023-02-21T01:26:32;6.40;;;3.90;;
14125;SDS011;7141;49.484;11.242;2023-02-21T01:29:17;7.13;;;4.03;;
14125;SDS011;7141;49.484;11.242;2023-02-21T01:32:01;6.63;;;4.17;;
14125;SDS011;7141;49.484;11.242;2023-02-21T01:34:46;6.07;;;3.43;;
14125;SDS011;7141;49.484;11.242;2023-02-21T01:37:30;8.73;;;3.47;;
14125;SDS011;7141;49.484;11.242;2023-02-21T01:40:15;8.63;;;3.70;;
14125;SDS011;7141;49.484;11.242;2023-02-21T01:43:00;10.20;;;3.97;;
14125;SDS011;7141;49.484;11.242;2023-02-21T01:45:46;8.23;;;3.53;;
14125;SDS011;7141;49.484;11.242;2023-02-21T01:48:31;5.93;;;3.80;;
14125;SDS011;7141;49.484;11.242;2023-02-21T01:51:18;7.50;;;3.73;;
14125;SDS011;7141;49.484;11.242;2023-02-21T01:54:04;10.57;;;3.87;;
14125;SDS011;7141;49.484;11.242;2023-02-21T01:56:49;4.97;;;2.87;;
14125;SDS011;7141;49.484;11.242;2023-02-21T01:59:34;9.23;;;3.87;;
14125;SDS011;7141;49.484;11.242;2023-02-21T02:05:22;9.33;;;3.33;;
14125;SDS011;7141;49.484;11.242;2023-02-21T02:08:09;5.47;;;3.20;;
14125;SDS011;7141;49.484;11.242;2023-02-21T02:11:09;9.30;;;3.27;;
14125;SDS011;7141;49.484;11.242;2023-02-21T02:16:50;4.77;;;3.43;;
14125;SDS011;7141;49.484;11.242;2023-02-21T02:22:05;6.33;;;3.20;;
14125;SDS011;7141;49.484;11.242;2023-02-21T02:24:35;8.40;;;3.70;;
14125;SDS011;7141;49.484;11.242;2023-02-21T02:34:46;5.93;;;3.10;;
14125;SDS011;7141;49.484;11.242;2023-02-21T02:39:55;6.47;;;3.73;;
14125;SDS011;7141;49.484;11.242;2023-02-21T02:42:46;8.40;;;3.47;;
14125;SDS011;7141;49.484;11.242;2023-02-21T02:45:17;8.40;;;3.93;;
14125;SDS011;7141;49.484;11.242;2023-02-21T02:47:45;6.30;;;3.43;;
14125;SDS011;7141;49.484;11.242;2023-02-21T02:50:14;6.97;;;3.90;;
14125;SDS011;7141;49.484;11.242;2023-02-21T02:52:53;8.73;;;3.40;;
14125;SDS011;7141;49.484;11.242;2023-02-21T02:57:46;6.30;;;3.47;;
14125;SDS011;7141;49.484;11.242;2023-02-21T03:00:13;6.57;;;3.17;;
14125;SDS011;7141;49.484;11.242;2023-02-21T03:05:14;5.37;;;3.67;;
14125;SDS011;7141;49.484;11.242;2023-02-21T03:10:36;5.77;;;3.20;;
14125;SDS011;7141;49.484;11.242;2023-02-21T03:18:32;10.13;;;4.00;;
14125;SDS011;7141;49.484;11.242;2023-02-21T03:21:03;8.47;;;3.17;;
14125;SDS011;7141;49.484;11.242;2023-02-21T03:23:30;8.10;;;4.00;;
14125;SDS011;7141;49.484;11.242;2023-02-21T03:26:00;8.00;;;3.37;;
14125;SDS011;7141;49.484;11.242;2023-02-21T03:28:28;6.73;;;3.40;;
14125;SDS011;7141;49.484;11.242;2023-02-21T03:30:55;5.73;;;3.47;;
14125;SDS011;7141;49.484;11.242;2023-02-21T03:33:22;4.73;;;3.23;;
14125;SDS011;7141;49.484;11.242;2023-02-21T03:35:48;5.73;;;3.57;;
14125;SDS011;7141;49.484;11.242;2023-02-21T03:38:14;6.93;;;3.20;;
14125;SDS011;7141;49.484;11.242;2023-02-21T03:40:40;5.00;;;3.33;;
14125;SDS011;7141;49.484;11.242;2023-02-21T03:43:06;8.67;;;3.47;;
14125;SDS011;7141;49.484;11.242;2023-02-21T03:45:32;5.37;;;3.20;;
14125;SDS011;7141;49.484;11.242;2023-02-21T03:47:58;5.80;;;3.00;;
14125;SDS011;7141;49.484;11.242;2023-02-21T03:50:25;6.57;;;3.47;;
14125;SDS011;7141;49.484;11.242;2023-02-21T03:52:51;5.20;;;3.27;;
14125;SDS011;7141;49.484;11.242;2023-02-21T03:55:17;6.10;;;3.20;;
14125;SDS011;7141;49.484;11.242;2023-02-21T03:57:43;5.27;;;3.03;;
14125;SDS011;7141;49.484;11.242;2023-02-21T04:00:09;6.03;;;3.33;;
14125;SDS011;7141;49.484;11.242;2023-02-21T04:02:35;6.27;;;3.13;;
14125;SDS011;7141;49.484;11.242;2023-02-21T04:05:01;7.83;;;3.80;;
14125;SDS011;7141;49.484;11.242;2023-02-21T04:07:27;5.10;;;3.00;;
14125;SDS011;7141;49.484;11.242;2023-02-21T04:09:53;6.03;;;3.07;;
14125;SDS011;7141;49.484;11.242;2023-02-21T04:12:19;6.67;;;3.47;;
14125;SDS011;7141;49.484;11.242;2023-02-21T04:14:45;3.77;;;2.93;;
14125;SDS011;7141;49.484;11.242;2023-02-21T04:17:11;6.37;;;3.13;;
14125;SDS011;7141;49.484;11.242;2023-02-21T04:19:37;8.07;;;3.83;;
14125;SDS011;7141;49.484;11.242;2023-02-21T04:22:03;6.53;;;3.30;;
14125;SDS011;7141;49.484;11.242;2023-02-21T04:24:29;6.47;;;3.20;;
14125;SDS011;7141;49.484;11.242;2023-02-21T04:26:55;6.27;;;3.43;;
14125;SDS011;7141;49.484;11.242;2023-02-21T04:29:22;7.30;;;3.87;;
14125;SDS011;7141;49.484;11.242;2023-02-21T04:31:48;6.17;;;3.30;;
14125;SDS011;7141;49.484;11.242;2023-02-21T04:34:14;6.40;;;3.00;;
14125;SDS011;7141;49.484;11.242;2023-02-21T04:36:40;5.90;;;3.30;;
14125;SDS011;7141;49.484;11.242;2023-02-21T04:39:06;6.93;;;3.83;;
14125;SDS011;7141;49.484;11.242;2023-02-21T04:41:32;10.43;;;4.70;;
14125;SDS011;7141;49.484;11.242;2023-02-21T04:43:58;8.83;;;4.97;;
14125;SDS011;7141;49.484;11.242;2023-02-21T04:46:25;7.63;;;4.27;;
14125;SDS011;7141;49.484;11.242;2023-02-21T04:48:51;7.70;;;3.73;;
14125;SDS011;7141;49.484;11.242;2023-02-21T04:51:18;3.80;;;3.03;;
14125;SDS011;7141;49.484;11.242;2023-02-21T04:53:46;6.83;;;3.20;;
14125;SDS011;7141;49.484;11.242;2023-02-21T04:56:12;6.17;;;3.00;;
14125;SDS011;7141;49.484;11.242;2023-02-21T04:58:38;9.00;;;3.47;;
14125;SDS011;7141;49.484;11.242;2023-02-21T05:01:04;8.43;;;3.60;;
14125;SDS011;7141;49.484;11.242;2023-02-21T05:03:30;7.07;;;3.40;;
14125;SDS011;7141;49.484;11.242;2023-02-21T05:05:56;4.93;;;3.00;;
14125;SDS011;7141;49.484;11.242;2023-02-21T05:08:22;6.63;;;3.20;;
14125;SDS011;7141;49.484;11.242;2023-02-21T05:10:48;4.87;;;3.20;;
14125;SDS011;7141;49.484;11.242;2023-02-21T05:13:14;6.93;;;3.10;;
14125;SDS011;7141;49.484;11.242;2023-02-21T05:15:41;6.03;;;3.20;;
14125;SDS011;7141;49.484;11.242;2023-02-21T05:18:07;8.77;;;3.37;;
14125;SDS011;7141;49.484;11.242;2023-02-21T05:20:33;5.03;;;3.17;;
14125;SDS011;7141;49.484;11.242;2023-02-21T05:22:59;5.23;;;3.00;;
14125;SDS011;7141;49.484;11.242;2023-02-21T05:25:25;4.17;;;3.17;;
14125;SDS011;7141;49.484;11.242;2023-02-21T05:27:51;6.83;;;3.60;;
14125;SDS011;7141;49.484;11.242;2023-02-21T05:30:18;8.03;;;3.77;;
14125;SDS011;7141;49.484;11.242;2023-02-21T05:32:45;12.70;;;4.27;;
14125;SDS011;7141;49.484;11.242;2023-02-21T05:35:12;8.53;;;3.33;;
14125;SDS011;7141;49.484;11.242;2023-02-21T05:37:38;6.50;;;3.70;;
14125;SDS011;7141;49.484;11.242;2023-02-21T05:40:04;7.80;;;3.67;;
14125;SDS011;7141;49.484;11.242;2023-02-21T05:42:30;8.63;;;3.47;;
14125;SDS011;7141;49.484;11.242;2023-02-21T05:44:56;6.83;;;3.77;;
14125;SDS011;7141;49.484;11.242;2023-02-21T05:47:22;7.87;;;3.57;;
14125;SDS011;7141;49.484;11.242;2023-02-21T05:49:48;11.57;;;3.60;;
14125;SDS011;7141;49.484;11.242;2023-02-21T05:52:15;5.27;;;3.70;;
14125;SDS011;7141;49.484;11.242;2023-02-21T05:54:41;9.90;;;3.97;;
14125;SDS011;7141;49.484;11.242;2023-02-21T05:57:08;5.77;;;3.67;;
14125;SDS011;7141;49.484;11.242;2023-02-21T05:59:34;9.60;;;5.00;;
14125;SDS011;7141;49.484;11.242;2023-02-21T06:02:00;7.83;;;4.17;;
14125;SDS011;7141;49.484;11.242;2023-02-21T06:04:26;6.50;;;4.20;;
14125;SDS011;7141;49.484;11.242;2023-02-21T06:06:51;14.17;;;4.67;;
14125;SDS011;7141;49.484;11.242;2023-02-21T06:09:18;6.87;;;3.90;;
14125;SDS011;7141;49.484;11.242;2023-02-21T06:11:44;7.00;;;4.27;;
14125;SDS011;7141;49.484;11.242;2023-02-21T06:14:17;8.80;;;4.37;;
14125;SDS011;7141;49.484;11.242;2023-02-21T06:16:44;10.60;;;4.80;;
14125;SDS011;7141;49.484;11.242;2023-02-21T06:19:11;10.50;;;4.87;;
14125;SDS011;7141;49.484;11.242;2023-02-21T06:21:37;6.10;;;3.97;;
14125;SDS011;7141;49.484;11.242;2023-02-21T06:24:05;9.87;;;3.97;;
14125;SDS011;7141;49.484;11.242;2023-02-21T06:26:31;9.37;;;3.90;;
14125;SDS011;7141;49.484;11.242;2023-02-21T06:28:57;9.80;;;4.47;;
14125;SDS011;7141;49.484;11.242;2023-02-21T06:31:23;9.20;;;4.40;;
14125;SDS011;7141;49.484;11.242;2023-02-21T06:33:49;11.63;;;4.33;;
14125;SDS011;7141;49.484;11.242;2023-02-21T06:36:19;5.23;;;4.13;;
14125;SDS011;7141;49.484;11.242;2023-02-21T06:38:46;8.10;;;4.40;;
14125;SDS011;7141;49.484;11.242;2023-02-21T06:41:15;9.73;;;4.17;;
14125;SDS011;7141;49.484;11.242;2023-02-21T06:43:41;8.17;;;4.07;;
14125;SDS011;7141;49.484;11.242;2023-02-21T06:46:07;8.27;;;4.17;;
14125;SDS011;7141;49.484;11.242;2023-02-21T06:48:33;10.30;;;5.00;;
14125;SDS011;7141;49.484;11.242;2023-02-21T06:50:59;12.27;;;4.63;;
14125;SDS011;7141;49.484;11.242;2023-02-21T06:53:25;7.10;;;4.00;;
14125;SDS011;7141;49.484;11.242;2023-02-21T06:55:51;5.70;;;4.10;;
14125;SDS011;7141;49.484;11.242;2023-02-21T06:58:17;11.80;;;4.90;;
14125;SDS011;7141;49.484;11.242;2023-02-21T07:00:43;8.77;;;4.23;;
14125;SDS011;7141;49.484;11.242;2023-02-21T07:03:09;8.97;;;4.73;;
14125;SDS011;7141;49.484;11.242;2023-02-21T07:05:35;10.10;;;5.07;;
14125;SDS011;7141;49.484;11.242;2023-02-21T07:08:02;10.13;;;5.03;;
14125;SDS011;7141;49.484;11.242;2023-02-21T07:10:29;8.87;;;4.47;;
14125;SDS011;7141;49.484;11.242;2023-02-21T07:12:55;11.13;;;5.13;;
14125;SDS011;7141;49.484;11.242;2023-02-21T07:15:21;6.37;;;4.17;;
14125;SDS011;7141;49.484;11.242;2023-02-21T07:17:47;9.67;;;5.87;;
14125;SDS011;7141;49.484;11.242;2023-02-21T07:20:13;11.13;;;6.10;;
14125;SDS011;7141;49.484;11.242;2023-02-21T07:22:39;11.97;;;6.67;;
14125;SDS011;7141;49.484;11.242;2023-02-21T07:25:05;10.50;;;6.20;;
14125;SDS011;7141;49.484;11.242;2023-02-21T07:27:31;11.73;;;5.73;;
14125;SDS011;7141;49.484;11.242;2023-02-21T07:29:57;11.73;;;6.33;;
14125;SDS011;7141;49.484;11.242;2023-02-21T07:32:23;14.10;;;7.23;;
14125;SDS011;7141;49.484;11.242;2023-02-21T07:34:49;11.43;;;6.67;;
14125;SDS011;7141;49.484;11.242;2023-02-21T07:37:15;12.13;;;7.13;;
14125;SDS011;7141;49.484;11.242;2023-02-21T07:39:41;12.23;;;6.47;;
14125;SDS011;7141;49.484;11.242;2023-02-21T07:42:07;8.67;;;6.23;;
14125;SDS011;7141;49.484;11.242;2023-02-21T07:44:33;13.40;;;7.03;;
14125;SDS011;7141;49.484;11.242;2023-02-21T07:46:59;13.23;;;5.83;;
14125;SDS011;7141;49.484;11.242;2023-02-21T07:49:25;11.40;;;5.80;;
14125;SDS011;7141;49.484;11.242;2023-02-21T07:51:51;9.93;;;5.43;;
14125;SDS011;7141;49.484;11.242;2023-02-21T07:54:17;9.30;;;5.70;;
14125;SDS011;7141;49.484;11.242;2023-02-21T07:56:43;12.90;;;5.40;;
14125;SDS011;7141;49.484;11.242;2023-02-21T07:59:09;9.83;;;5.53;;
14125;SDS011;7141;49.484;11.242;2023-02-21T08:01:35;10.93;;;5.80;;
14125;SDS011;7141;49.484;11.242;2023-02-21T08:04:01;10.63;;;6.47;;
14125;SDS011;7141;49.484;11.242;2023-02-21T08:06:27;12.40;;;6.70;;
14125;SDS011;7141;49.484;11.242;2023-02-21T08:08:53;11.80;;;5.87;;
14125;SDS011;7141;49.484;11.242;2023-02-21T08:11:19;11.23;;;5.87;;
14125;SDS011;7141;49.484;11.242;2023-02-21T08:13:45;10.70;;;5.63;;
14125;SDS011;7141;49.484;11.242;2023-02-21T08:16:11;8.50;;;5.80;;
14125;SDS011;7141;49.484;11.242;2023-02-21T08:18:37;10.50;;;5.53;;
14125;SDS011;7141;49.484;11.242;2023-02-21T08:21:06;15.47;;;6.80;;
14125;SDS011;7141;49.484;11.242;2023-02-21T08:23:32;11.00;;;6.13;;
14125;SDS011;7141;49.484;11.242;2023-02-21T08:25:58;13.10;;;6.80;;
14125;SDS011;7141;49.484;11.242;2023-02-21T08:28:24;13.13;;;7.03;;
14125;SDS011;7141;49.484;11.242;2023-02-21T08:30:50;9.20;;;5.73;;
14125;SDS011;7141;49.484;11.242;2023-02-21T08:33:17;8.47;;;6.17;;
14125;SDS011;7141;49.484;11.242;2023-02-21T08:35:43;10.50;;;6.53;;
14125;SDS011;7141;49.484;11.242;2023-02-21T08:38:09;13.93;;;6.27;;
14125;SDS011;7141;49.484;11.242;2023-02-21T08:40:35;10.77;;;6.43;;
14125;SDS011;7141;49.484;11.242;2023-02-21T08:43:01;12.53;;;6.70;;
14125;SDS011;7141;49.484;11.242;2023-02-21T08:45:29;14.73;;;6.47;;
14125;SDS011;7141;49.484;11.242;2023-02-21T08:47:56;16.63;;;6.53;;
14125;SDS011;7141;49.484;11.242;2023-02-21T08:50:23;12.03;;;6.47;;
14125;SDS011;7141;49.484;11.242;2023-02-21T08:52:49;12.40;;;6.03;;
14125;SDS011;7141;49.484;11.242;2023-02-21T08:55:16;15.07;;;6.53;;
14125;SDS011;7141;49.484;11.242;2023-02-21T08:57:43;11.50;;;6.33;;
14125;SDS011;7141;49.484;11.242;2023-02-21T09:00:10;10.70;;;5.90;;
14125;SDS011;7141;49.484;11.242;2023-02-21T09:02:36;14.67;;;6.80;;
14125;SDS011;7141;49.484;11.242;2023-02-21T09:05:15;10.23;;;6.00;;
14125;SDS011;7141;49.484;11.242;2023-02-21T09:07:42;13.13;;;7.23;;
14125;SDS011;7141;49.484;11.242;2023-02-21T09:10:09;11.47;;;6.00;;
14125;SDS011;7141;49.484;11.242;2023-02-21T09:12:36;11.17;;;6.17;;
14125;SDS011;7141;49.484;11.242;2023-02-21T09:15:02;9.97;;;6.13;;
14125;SDS011;7141;49.484;11.242;2023-02-21T09:17:28;13.57;;;6.50;;
14125;SDS011;7141;49.484;11.242;2023-02-21T09:19:58;14.20;;;6.13;;
14125;SDS011;7141;49.484;11.242;2023-02-21T09:22:23;9.60;;;6.10;;
14125;SDS011;7141;49.484;11.242;2023-02-21T09:24:49;9.13;;;5.57;;
14125;SDS011;7141;49.484;11.242;2023-02-21T09:27:15;9.33;;;5.73;;
14125;SDS011;7141;49.484;11.242;2023-02-21T09:29:41;9.73;;;5.63;;
14125;SDS011;7141;49.484;11.242;2023-02-21T09:32:07;8.93;;;5.87;;
14125;SDS011;7141;49.484;11.242;2023-02-21T09:34:33;12.57;;;5.97;;
14125;SDS011;7141;49.484;11.242;2023-02-21T09:37:03;10.80;;;5.60;;
14125;SDS011;7141;49.484;11.242;2023-02-21T09:39:29;9.47;;;5.67;;
14125;SDS011;7141;49.484;11.242;2023-02-21T09:41:55;9.73;;;5.13;;
14125;SDS011;7141;49.484;11.242;2023-02-21T09:44:25;8.30;;;5.07;;
14125;SDS011;7141;49.484;11.242;2023-02-21T09:46:53;10.37;;;5.80;;
14125;SDS011;7141;49.484;11.242;2023-02-21T09:49:23;8.10;;;5.00;;
14125;SDS011;7141;49.484;11.242;2023-02-21T09:51:49;10.17;;;5.87;;
14125;SDS011;7141;49.484;11.242;2023-02-21T09:54:18;10.33;;;5.40;;
14125;SDS011;7141;49.484;11.242;2023-02-21T09:56:47;10.27;;;5.93;;
14125;SDS011;7141;49.484;11.242;2023-02-21T09:59:13;7.67;;;5.07;;
14125;SDS011;7141;49.484;11.242;2023-02-21T10:04:58;13.07;;;6.17;;
14125;SDS011;7141;49.484;11.242;2023-02-21T10:07:25;8.73;;;5.63;;
14125;SDS011;7141;49.484;11.242;2023-02-21T10:19:57;12.37;;;5.23;;
14125;SDS011;7141;49.484;11.242;2023-02-21T10:22:26;8.37;;;5.33;;
14125;SDS011;7141;49.484;11.242;2023-02-21T10:24:53;9.93;;;5.87;;
14125;SDS011;7141;49.484;11.242;2023-02-21T10:27:24;9.40;;;5.57;;
14125;SDS011;7141;49.484;11.242;2023-02-21T10:29:53;8.90;;;4.97;;
14125;SDS011;7141;49.484;11.242;2023-02-21T10:32:21;7.67;;;5.20;;
14125;SDS011;7141;49.484;11.242;2023-02-21T10:34:48;10.37;;;5.67;;
14125;SDS011;7141;49.484;11.242;2023-02-21T10:42:35;15.20;;;5.30;;
14125;SDS011;7141;49.484;11.242;2023-02-21T10:45:02;11.43;;;5.43;;
14125;SDS011;7141;49.484;11.242;2023-02-21T10:50:03;8.57;;;5.13;;
14125;SDS011;7141;49.484;11.242;2023-02-21T10:52:35;11.20;;;4.77;;
14125;SDS011;7141;49.484;11.242;2023-02-21T10:55:03;8.33;;;4.97;;
14125;SDS011;7141;49.484;11.242;2023-02-21T10:57:32;6.53;;;4.37;;
14125;SDS011;7141;49.484;11.242;2023-02-21T10:59:59;6.27;;;4.77;;
14125;SDS011;7141;49.484;11.242;2023-02-21T11:02:35;6.77;;;4.63;;
14125;SDS011;7141;49.484;11.242;2023-02-21T11:05:08;7.07;;;4.40;;
14125;SDS011;7141;49.484;11.242;2023-02-21T11:07:34;6.57;;;4.70;;
14125;SDS011;7141;49.484;11.242;2023-02-21T11:10:00;8.57;;;4.83;;
14125;SDS011;7141;49.484;11.242;2023-02-21T11:12:27;8.07;;;4.80;;
14125;SDS011;7141;49.484;11.242;2023-02-21T11:17:23;6.80;;;4.50;;
14125;SDS011;7141;49.484;11.242;2023-02-21T11:22:16;7.07;;;3.90;;
14125;SDS011;7141;49.484;11.242;2023-02-21T11:27:20;4.87;;;3.63;;
14125;SDS011;7141;49.484;11.242;2023-02-21T11:29:47;7.03;;;4.37;;
14125;SDS011;7141;49.484;11.242;2023-02-21T11:32:27;6.80;;;4.17;;
14125;SDS011;7141;49.484;11.242;2023-02-21T11:37:49;4.87;;;3.27;;
14125;SDS011;7141;49.484;11.242;2023-02-21T11:40:27;5.53;;;3.60;;
14125;SDS011;7141;49.484;11.242;2023-02-21T11:48:23;4.73;;;3.53;;
14125;SDS011;7141;49.484;11.242;2023-02-21T11:50:55;5.43;;;3.80;;
14125;SDS011;7141;49.484;11.242;2023-02-21T11:53:33;6.87;;;3.80;;
14125;SDS011;7141;49.484;11.242;2023-02-21T11:56:07;5.80;;;3.60;;
14125;SDS011;7141;49.484;11.242;2023-02-21T12:03:37;3.90;;;3.07;;
14125;SDS011;7141;49.484;11.242;2023-02-21T12:11:28;4.87;;;3.47;;
14125;SDS011;7141;49.484;11.242;2023-02-21T12:16:43;3.80;;;2.67;;
14125;SDS011;7141;49.484;11.242;2023-02-21T12:19:21;5.77;;;3.40;;
14125;SDS011;7141;49.484;11.242;2023-02-21T12:22:01;5.03;;;3.40;;
14125;SDS011;7141;49.484;11.242;2023-02-21T12:24:44;4.57;;;2.97;;
14125;SDS011;7141;49.484;11.242;2023-02-21T12:27:16;4.73;;;3.07;;
14125;SDS011;7141;49.484;11.242;2023-02-21T12:40:43;4.30;;;2.40;;
14125;SDS011;7141;49.484;11.242;2023-02-21T12:50:41;3.23;;;2.17;;
14125;SDS011;7141;49.484;11.242;2023-02-21T12:53:11;3.07;;;2.23;;
14125;SDS011;7141;49.484;11.242;2023-02-21T12:55:39;3.57;;;2.27;;
14125;SDS011;7141;49.484;11.242;2023-02-21T13:06:18;2.67;;;1.93;;
14125;SDS011;7141;49.484;11.242;2023-02-21T13:11:21;2.30;;;2.07;;
14125;SDS011;7141;49.484;11.242;2023-02-21T13:13:49;2.67;;;1.80;;
14125;SDS011;7141;49.484;11.242;2023-02-21T13:16:15;2.00;;;1.63;;
14125;SDS011;7141;49.484;11.242;2023-02-21T13:18:43;2.57;;;1.83;;
14125;SDS011;7141;49.484;11.242;2023-02-21T13:28:54;4.70;;;1.80;;
14125;SDS011;7141;49.484;11.242;2023-02-21T13:31:21;2.20;;;1.80;;
14125;SDS011;7141;49.484;11.242;2023-02-21T13:33:53;3.73;;;1.90;;
14125;SDS011;7141;49.484;11.242;2023-02-21T13:38:56;3.90;;;1.90;;
14125;SDS011;7141;49.484;11.242;2023-02-21T13:41:24;1.67;;;1.53;;
14125;SDS011;7141;49.484;11.242;2023-02-21T13:43:51;2.63;;;2.00;;
14125;SDS011;7141;49.484;11.242;2023-02-21T13:46:22;2.70;;;1.90;;
14125;SDS011;7141;49.484;11.242;2023-02-21T13:51:47;2.67;;;1.57;;
14125;SDS011;7141;49.484;11.242;2023-02-21T13:54:13;2.67;;;1.50;;
14125;SDS011;7141;49.484;11.242;2023-02-21T13:56:45;2.17;;;1.73;;
14125;SDS011;7141;49.484;11.242;2023-02-21T13:59:34;1.47;;;1.37;;
14125;SDS011;7141;49.484;11.242;2023-02-21T14:02:16;3.00;;;1.70;;
14125;SDS011;7141;49.484;11.242;2023-02-21T14:07:13;1.77;;;1.40;;
14125;SDS011;7141;49.484;11.242;2023-02-21T14:09:39;1.90;;;1.50;;
14125;SDS011;7141;49.484;11.242;2023-02-21T14:12:06;1.83;;;1.33;;
14125;SDS011;7141;49.484;11.242;2023-02-21T14:14:35;1.30;;;1.20;;
14125;SDS011;7141;49.484;11.242;2023-02-21T14:17:07;1.93;;;1.10;;
14125;SDS011;7141;49.484;11.242;2023-02-21T14:22:16;3.53;;;1.20;;
14125;SDS011;7141;49.484;11.242;2023-02-21T14:24:46;1.43;;;1.33;;
14125;SDS011;7141;49.484;11.242;2023-02-21T14:32:26;1.67;;;1.10;;
14125;SDS011;7141;49.484;11.242;2023-02-21T14:34:53;2.03;;;1.27;;
14125;SDS011;7141;49.484;11.242;2023-02-21T14:38:22;1.47;;;1.20;;
14125;SDS011;7141;49.484;11.242;2023-02-21T14:42:45;2.03;;;1.10;;
14125;SDS011;7141;49.484;11.242;2023-02-21T14:53:18;1.57;;;1.00;;
14125;SDS011;7141;49.484;11.242;2023-02-21T14:56:07;1.70;;;1.10;;
14125;SDS011;7141;49.484;11.242;2023-02-21T15:03:49;2.53;;;1.40;;
14125;SDS011;7141;49.484;11.242;2023-02-21T15:06:20;1.20;;;1.10;;
14125;SDS011;7141;49.484;11.242;2023-02-21T15:08:49;1.97;;;1.13;;
14125;SDS011;7141;49.484;11.242;2023-02-21T15:13:44;1.60;;;1.00;;
14125;SDS011;7141;49.484;11.242;2023-02-21T15:16:11;4.50;;;1.37;;
14125;SDS011;7141;49.484;11.242;2023-02-21T15:18:38;1.37;;;1.10;;
14125;SDS011;7141;49.484;11.242;2023-02-21T15:23:39;1.00;;;0.87;;
14125;SDS011;7141;49.484;11.242;2023-02-21T15:26:17;1.30;;;1.20;;
14125;SDS011;7141;49.484;11.242;2023-02-21T15:28:43;3.43;;;1.20;;
14125;SDS011;7141;49.484;11.242;2023-02-21T15:31:10;1.90;;;1.23;;
14125;SDS011;7141;49.484;11.242;2023-02-21T15:33:40;1.90;;;0.90;;
14125;SDS011;7141;49.484;11.242;2023-02-21T15:36:21;1.83;;;1.13;;
14125;SDS011;7141;49.484;11.242;2023-02-21T15:38:50;2.50;;;1.27;;
14125;SDS011;7141;49.484;11.242;2023-02-21T15:43:50;1.83;;;0.93;;
14125;SDS011;7141;49.484;11.242;2023-02-21T15:46:20;1.20;;;1.07;;
14125;SDS011;7141;49.484;11.242;2023-02-21T15:48:47;1.40;;;0.87;;
14125;SDS011;7141;49.484;11.242;2023-02-21T15:51:13;1.03;;;0.97;;
14125;SDS011;7141;49.484;11.242;2023-02-21T15:53:40;1.00;;;0.90;;
14125;SDS011;7141;49.484;11.242;2023-02-21T15:56:23;1.33;;;0.90;;
14125;SDS011;7141;49.484;11.242;2023-02-21T16:01:37;2.27;;;1.33;;
14125;SDS011;7141;49.484;11.242;2023-02-21T16:05:03;3.80;;;1.10;;
14125;SDS011;7141;49.484;11.242;2023-02-21T16:06:58;3.50;;;1.30;;
14125;SDS011;7141;49.484;11.242;2023-02-21T16:09:26;1.30;;;1.20;;
14125;SDS011;7141;49.484;11.242;2023-02-21T16:11:55;1.60;;;1.00;;
14125;SDS011;7141;49.484;11.242;2023-02-21T16:14:30;1.50;;;1.20;;
14125;SDS011;7141;49.484;11.242;2023-02-21T16:20:01;2.43;;;1.27;;
14125;SDS011;7141;49.484;11.242;2023-02-21T16:22:37;2.17;;;1.40;;
14125;SDS011;7141;49.484;11.242;2023-02-21T16:27:29;3.07;;;1.43;;
14125;SDS011;7141;49.484;11.242;2023-02-21T16:29:55;7.80;;;5.20;;
14125;SDS011;7141;49.484;11.242;2023-02-21T16:32:21;2.87;;;1.70;;
14125;SDS011;7141;49.484;11.242;2023-02-21T16:34:49;9.63;;;5.03;;
14125;SDS011;7141;49.484;11.242;2023-02-21T16:37:15;8.03;;;4.87;;
14125;SDS011;7141;49.484;11.242;2023-02-21T16:39:41;8.03;;;2.23;;
14125;SDS011;7141;49.484;11.242;2023-02-21T16:42:07;2.87;;;1.77;;
14125;SDS011;7141;49.484;11.242;2023-02-21T16:44:33;3.53;;;2.00;;
14125;SDS011;7141;49.484;11.242;2023-02-21T16:46:59;3.53;;;1.80;;
14125;SDS011;7141;49.484;11.242;2023-02-21T16:49:25;3.33;;;1.30;;
14125;SDS011;7141;49.484;11.242;2023-02-21T16:51:51;2.70;;;1.90;;
14125;SDS011;7141;49.484;11.242;2023-02-21T16:54:17;2.33;;;1.30;;
14125;SDS011;7141;49.484;11.242;2023-02-21T16:56:44;2.73;;;1.40;;
14125;SDS011;7141;49.484;11.242;2023-02-21T16:59:12;2.23;;;1.10;;
14125;SDS011;7141;49.484;11.242;2023-02-21T17:01:38;1.53;;;1.30;;
14125;SDS011;7141;49.484;11.242;2023-02-21T17:04:15;2.10;;;1.50;;
14125;SDS011;7141;49.484;11.242;2023-02-21T17:06:41;2.80;;;2.40;;
14125;SDS011;7141;49.484;11.242;2023-02-21T17:09:10;3.10;;;2.77;;
14125;SDS011;7141;49.484;11.242;2023-02-21T17:11:41;5.90;;;4.00;;
14125;SDS011;7141;49.484;11.242;2023-02-21T17:14:07;5.07;;;4.17;;
14125;SDS011;7141;49.484;11.242;2023-02-21T17:16:33;6.47;;;4.80;;
14125;SDS011;7141;49.484;11.242;2023-02-21T17:18:59;6.83;;;5.33;;
14125;SDS011;7141;49.484;11.242;2023-02-21T17:21:25;7.40;;;5.23;;
14125;SDS011;7141;49.484;11.242;2023-02-21T17:23:51;10.57;;;7.03;;
14125;SDS011;7141;49.484;11.242;2023-02-21T17:26:18;9.27;;;6.53;;
14125;SDS011;7141;49.484;11.242;2023-02-21T17:28:46;10.53;;;7.03;;
14125;SDS011;7141;49.484;11.242;2023-02-21T17:31:14;8.20;;;6.87;;
14125;SDS011;7141;49.484;11.242;2023-02-21T17:33:42;9.97;;;6.77;;
14125;SDS011;7141;49.484;11.242;2023-02-21T17:36:14;12.27;;;8.17;;
14125;SDS011;7141;49.484;11.242;2023-02-21T17:38:40;17.53;;;11.53;;
14125;SDS011;7141;49.484;11.242;2023-02-21T17:41:06;20.57;;;12.93;;
14125;SDS011;7141;49.484;11.242;2023-02-21T17:43:32;23.13;;;14.80;;
14125;SDS011;7141;49.484;11.242;2023-02-21T17:45:58;21.37;;;13.33;;
14125;SDS011;7141;49.484;11.242;2023-02-21T17:48:24;21.90;;;12.07;;
14125;SDS011;7141;49.484;11.242;2023-02-21T17:50:50;16.67;;;10.77;;